Time,TemperatureF,DewpointF,PressureIn,WindDirection,WindDirectionDegrees,WindSpeedMPH,WindSpeedGustMPH,Humidity,HourlyPrecipIn,Conditions,Clouds,dailyrainin,SoftwareType,DateUTC
2013-02-12 00:00:00,47.5,44.1,29.71,NW,314,7.0,7.0,88,0.00,,,0.00,Wunderground v.1.15,2013-02-12 05:00:00,
2013-02-12 00:10:00,46.8,43.4,29.72,NNW,330,6.0,6.0,88,0.00,,,0.00,Wunderground v.1.15,2013-02-12 05:10:00,
2013-02-12 00:15:00,46.4,43.3,29.72,WNW,302,5.0,6.0,89,0.00,,,0.00,Wunderground v.1.15,2013-02-12 05:15:00,
2013-02-12 00:25:00,45.9,42.8,29.72,NW,308,5.0,6.0,89,0.00,,,0.00,Wunderground v.1.15,2013-02-12 05:25:00,
2013-02-12 00:30:00,45.6,42.5,29.72,NW,323,6.0,6.0,89,0.00,,,0.00,Wunderground v.1.15,2013-02-12 05:30:00,
2013-02-12 00:35:00,45.4,42.6,29.72,NW,309,5.0,9.0,90,0.00,,,0.00,Wunderground v.1.15,2013-02-12 05:35:00,
2013-02-12 00:40:00,45.1,42.3,29.72,NW,314,5.0,5.0,90,0.00,,,0.00,Wunderground v.1.15,2013-02-12 05:40:00,
2013-02-12 00:45:00,44.9,42.1,29.72,NW,314,4.0,5.0,90,0.00,,,0.00,Wunderground v.1.15,2013-02-12 05:45:00,
2013-02-12 00:50:00,44.8,42.0,29.73,West,274,4.0,4.0,90,0.00,,,0.00,Wunderground v.1.15,2013-02-12 05:50:00,
2013-02-12 00:55:00,44.6,41.8,29.73,WNW,297,3.0,4.0,90,0.00,,,0.00,Wunderground v.1.15,2013-02-12 05:55:00,
2013-02-12 01:00:00,44.2,41.7,29.73,NW,305,2.0,2.0,91,0.00,,,0.00,Wunderground v.1.15,2013-02-12 06:00:00,
2013-02-12 01:05:00,44.0,41.5,29.73,NW,314,2.0,2.0,91,0.00,,,0.00,Wunderground v.1.15,2013-02-12 06:05:00,
2013-02-12 01:15:00,43.6,41.1,29.73,NW,307,2.0,3.0,91,0.00,,,0.00,Wunderground v.1.15,2013-02-12 06:15:00,
2013-02-12 01:20:00,43.5,41.3,29.74,WNW,291,2.0,2.0,92,0.00,,,0.00,Wunderground v.1.15,2013-02-12 06:20:00,
2013-02-12 01:30:00,43.2,41.0,29.74,WNW,290,1.0,2.0,92,0.00,,,0.00,Wunderground v.1.15,2013-02-12 06:30:00,
2013-02-12 01:35:00,43.1,40.9,29.74,West,281,2.0,4.0,92,0.00,,,0.00,Wunderground v.1.15,2013-02-12 06:35:00,
2013-02-12 01:40:00,43.2,40.8,29.74,WNW,293,3.0,3.0,91,0.00,,,0.00,Wunderground v.1.15,2013-02-12 06:40:00,
2013-02-12 01:45:00,43.3,40.6,29.74,NW,321,4.0,4.0,90,0.00,,,0.00,Wunderground v.1.15,2013-02-12 06:45:00,
2013-02-12 01:50:00,43.3,40.3,29.74,WNW,283,4.0,8.0,89,0.00,,,0.00,Wunderground v.1.15,2013-02-12 06:50:00,
2013-02-12 02:00:00,43.4,38.9,29.74,WNW,297,5.0,5.0,84,0.00,,,0.00,Wunderground v.1.15,2013-02-12 07:00:00,
2013-02-12 02:05:00,43.3,38.8,29.75,NNW,332,5.0,5.0,84,0.00,,,0.00,Wunderground v.1.15,2013-02-12 07:05:00,
2013-02-12 02:10:00,43.2,38.4,29.75,WNW,290,4.0,4.0,83,0.00,,,0.00,Wunderground v.1.15,2013-02-12 07:10:00,
2013-02-12 02:15:00,43.2,38.4,29.74,WSW,254,3.0,4.0,83,0.00,,,0.00,Wunderground v.1.15,2013-02-12 07:15:00,
2013-02-12 02:20:00,43.2,38.1,29.75,WNW,290,4.0,4.0,82,0.00,,,0.00,Wunderground v.1.15,2013-02-12 07:20:00,
2013-02-12 02:25:00,43.1,38.0,29.75,West,260,4.0,4.0,82,0.00,,,0.00,Wunderground v.1.15,2013-02-12 07:25:00,
2013-02-12 02:35:00,43.0,36.6,29.75,WNW,300,4.0,4.0,78,0.00,,,0.00,Wunderground v.1.15,2013-02-12 07:35:00,
2013-02-12 02:45:00,42.8,36.4,29.76,WNW,297,4.0,4.0,78,0.00,,,0.00,Wunderground v.1.15,2013-02-12 07:45:00,
2013-02-12 02:55:00,42.5,35.5,29.76,WNW,291,4.0,4.0,76,0.00,,,0.00,Wunderground v.1.15,2013-02-12 07:55:00,
2013-02-12 03:00:00,42.3,34.9,29.75,West,269,4.0,4.0,75,0.00,,,0.00,Wunderground v.1.15,2013-02-12 08:00:00,
2013-02-12 03:10:00,42.1,34.1,29.75,NW,321,4.0,8.0,73,0.00,,,0.00,Wunderground v.1.15,2013-02-12 08:10:00,
2013-02-12 03:15:00,42.2,33.8,29.76,NNW,332,6.0,11.0,72,0.00,,,0.00,Wunderground v.1.15,2013-02-12 08:15:00,
2013-02-12 03:25:00,42.2,32.8,29.76,NW,321,7.0,7.0,69,0.00,,,0.00,Wunderground v.1.15,2013-02-12 08:25:00,
2013-02-12 03:30:00,42.1,32.7,29.76,WNW,288,7.0,7.0,69,0.00,,,0.00,Wunderground v.1.15,2013-02-12 08:30:00,
2013-02-12 03:35:00,42.0,32.2,29.77,West,280,6.0,7.0,68,0.00,,,0.00,Wunderground v.1.15,2013-02-12 08:35:00,
2013-02-12 03:45:00,41.9,31.7,29.77,NNW,335,6.0,8.0,67,0.00,,,0.00,Wunderground v.1.15,2013-02-12 08:45:00,
2013-02-12 03:55:00,41.9,31.4,29.77,WNW,302,7.0,9.0,66,0.00,,,0.00,Wunderground v.1.15,2013-02-12 08:55:00,
2013-02-12 04:05:00,41.7,31.2,29.77,NNW,327,7.0,17.0,66,0.00,,,0.00,Wunderground v.1.15,2013-02-12 09:05:00,
2013-02-12 04:10:00,41.9,31.0,29.77,WNW,296,9.0,9.0,65,0.00,,,0.00,Wunderground v.1.15,2013-02-12 09:10:00,
2013-02-12 04:15:00,41.6,31.1,29.77,NW,307,9.0,9.0,66,0.00,,,0.00,Wunderground v.1.15,2013-02-12 09:15:00,
2013-02-12 04:20:00,41.5,31.4,29.77,NW,312,7.0,9.0,67,0.00,,,0.00,Wunderground v.1.15,2013-02-12 09:20:00,
2013-02-12 04:30:00,41.3,30.8,29.77,NW,309,9.0,10.0,66,0.00,,,0.00,Wunderground v.1.15,2013-02-12 09:30:00,
2013-02-12 04:40:00,41.2,31.1,29.77,NW,319,8.0,8.0,67,0.00,,,0.00,Wunderground v.1.15,2013-02-12 09:40:00,
2013-02-12 04:50:00,41.5,30.6,29.78,West,280,10.0,10.0,65,0.00,,,0.00,Wunderground v.1.15,2013-02-12 09:50:00,
2013-02-12 04:55:00,41.2,30.7,29.78,NW,309,8.0,10.0,66,0.00,,,0.00,Wunderground v.1.15,2013-02-12 09:55:00,
2013-02-12 05:05:00,41.0,30.5,29.78,WNW,300,6.0,7.0,66,0.00,,,0.00,Wunderground v.1.15,2013-02-12 10:05:00,
2013-02-12 05:10:00,40.7,30.6,29.79,WNW,296,5.0,6.0,67,0.00,,,0.00,Wunderground v.1.15,2013-02-12 10:10:00,
2013-02-12 05:15:00,40.8,30.3,29.79,WNW,302,6.0,6.0,66,0.00,,,0.00,Wunderground v.1.15,2013-02-12 10:15:00,
2013-02-12 05:25:00,40.4,30.3,29.79,WNW,295,4.0,6.0,67,0.00,,,0.00,Wunderground v.1.15,2013-02-12 10:25:00,
2013-02-12 05:35:00,40.2,30.1,29.80,WNW,285,3.0,4.0,67,0.00,,,0.00,Wunderground v.1.15,2013-02-12 10:35:00,
2013-02-12 05:40:00,40.1,30.4,29.80,WNW,300,3.0,3.0,68,0.00,,,0.00,Wunderground v.1.15,2013-02-12 10:40:00,
2013-02-12 05:45:00,40.0,29.9,29.81,WNW,291,3.0,3.0,67,0.00,,,0.00,Wunderground v.1.15,2013-02-12 10:45:00,
2013-02-12 05:50:00,40.0,29.9,29.81,NW,309,3.0,3.0,67,0.00,,,0.00,Wunderground v.1.15,2013-02-12 10:50:00,
2013-02-12 05:55:00,40.1,30.0,29.81,WNW,296,4.0,6.0,67,0.00,,,0.00,Wunderground v.1.15,2013-02-12 10:55:00,
2013-02-12 06:00:00,40.1,30.0,29.81,NW,307,4.0,6.0,67,0.00,,,0.00,Wunderground v.1.15,2013-02-12 11:00:00,
2013-02-12 06:05:00,40.3,29.8,29.81,WNW,284,5.0,6.0,66,0.00,,,0.00,Wunderground v.1.15,2013-02-12 11:05:00,
2013-02-12 06:15:00,40.4,29.6,29.81,NW,316,6.0,8.0,65,0.00,,,0.00,Wunderground v.1.15,2013-02-12 11:15:00,
2013-02-12 06:20:00,40.3,29.5,29.81,NW,319,7.0,7.0,65,0.00,,,0.00,Wunderground v.1.15,2013-02-12 11:20:00,
2013-02-12 06:30:00,40.1,29.3,29.81,WNW,300,6.0,6.0,65,0.00,,,0.00,Wunderground v.1.15,2013-02-12 11:30:00,
2013-02-12 06:35:00,40.0,29.2,29.81,WNW,300,4.0,8.0,65,0.00,,,0.00,Wunderground v.1.15,2013-02-12 11:35:00,
2013-02-12 06:45:00,40.3,27.9,29.81,NW,325,8.0,11.0,61,0.00,,,0.00,Wunderground v.1.15,2013-02-12 11:45:00,
2013-02-12 06:55:00,40.3,27.9,29.82,NW,314,6.0,8.0,61,0.00,,,0.00,Wunderground v.1.15,2013-02-12 11:55:00,
2013-02-12 07:00:00,40.1,27.7,29.82,WSW,249,5.0,5.0,61,0.00,,,0.00,Wunderground v.1.15,2013-02-12 12:00:00,
2013-02-12 07:05:00,40.0,27.6,29.82,WNW,285,4.0,5.0,61,0.00,,,0.00,Wunderground v.1.15,2013-02-12 12:05:00,
2013-02-12 07:15:00,40.0,28.0,29.82,NW,314,4.0,5.0,62,0.00,,,0.00,Wunderground v.1.15,2013-02-12 12:15:00,
2013-02-12 07:20:00,40.1,27.3,29.82,WNW,297,5.0,5.0,60,0.00,,,0.00,Wunderground v.1.15,2013-02-12 12:20:00,
2013-02-12 07:25:00,40.4,27.6,29.83,West,274,6.0,6.0,60,0.00,,,0.00,Wunderground v.1.15,2013-02-12 12:25:00,
2013-02-12 07:35:00,40.8,27.2,29.84,NW,316,6.0,8.0,58,0.00,,,0.00,Wunderground v.1.15,2013-02-12 12:35:00,
2013-02-12 07:40:00,40.9,26.8,29.84,NW,316,6.0,7.0,57,0.00,,,0.00,Wunderground v.1.15,2013-02-12 12:40:00,
2013-02-12 07:50:00,41.5,27.4,29.84,WNW,291,7.0,8.0,57,0.00,,,0.00,Wunderground v.1.15,2013-02-12 12:50:00,
2013-02-12 07:55:00,41.8,26.8,29.84,NW,305,9.0,9.0,55,0.00,,,0.00,Wunderground v.1.15,2013-02-12 12:55:00,
2013-02-12 08:05:00,42.0,27.0,29.85,West,277,10.0,10.0,55,0.00,,,0.00,Wunderground v.1.15,2013-02-12 13:05:00,
2013-02-12 08:10:00,42.1,27.5,29.85,NW,311,11.0,11.0,56,0.00,,,0.00,Wunderground v.1.15,2013-02-12 13:10:00,
2013-02-12 08:15:00,42.2,27.6,29.86,SW,232,10.0,12.0,56,0.00,,,0.00,Wunderground v.1.15,2013-02-12 13:15:00,
2013-02-12 08:25:00,42.3,27.3,29.86,NW,314,10.0,10.0,55,0.00,,,0.00,Wunderground v.1.15,2013-02-12 13:25:00,
2013-02-12 08:35:00,42.5,27.5,29.86,NNW,333,11.0,16.0,55,0.00,,,0.00,Wunderground v.1.15,2013-02-12 13:35:00,
2013-02-12 08:45:00,42.6,27.1,29.86,WNW,288,12.0,12.0,54,0.00,,,0.00,Wunderground v.1.15,2013-02-12 13:45:00,
2013-02-12 08:50:00,42.5,27.0,29.86,WNW,300,11.0,13.0,54,0.00,,,0.00,Wunderground v.1.15,2013-02-12 13:50:00,
2013-02-12 09:00:00,42.6,27.1,29.86,WNW,296,13.0,17.0,54,0.00,,,0.00,Wunderground v.1.15,2013-02-12 14:00:00,
2013-02-12 09:05:00,42.5,27.0,29.86,NW,304,14.0,17.0,54,0.00,,,0.00,Wunderground v.1.15,2013-02-12 14:05:00,
2013-02-12 09:10:00,42.5,27.5,29.86,NW,311,13.0,13.0,55,0.00,,,0.00,Wunderground v.1.15,2013-02-12 14:10:00,
2013-02-12 09:15:00,42.5,27.0,29.86,WNW,282,11.0,13.0,54,0.00,,,0.00,Wunderground v.1.15,2013-02-12 14:15:00,
2013-02-12 09:25:00,42.8,27.3,29.86,WNW,283,11.0,11.0,54,0.00,,,0.00,Wunderground v.1.15,2013-02-12 14:25:00,
2013-02-12 09:35:00,43.8,27.3,29.86,West,278,13.0,20.0,52,0.00,,,0.00,Wunderground v.1.15,2013-02-12 14:35:00,
2013-02-12 09:40:00,44.0,26.5,29.86,WSW,255,14.0,14.0,50,0.00,,,0.00,Wunderground v.1.15,2013-02-12 14:40:00,
2013-02-12 09:45:00,44.2,27.2,29.86,SW,235,14.0,16.0,51,0.00,,,0.00,Wunderground v.1.15,2013-02-12 14:45:00,
2013-02-12 09:50:00,44.3,27.3,29.86,West,275,13.0,13.0,51,0.00,,,0.00,Wunderground v.1.15,2013-02-12 14:50:00,
2013-02-12 10:00:00,44.4,27.9,29.86,WNW,286,13.0,19.0,52,0.00,,,0.00,Wunderground v.1.15,2013-02-12 15:00:00,
2013-02-12 10:05:00,44.5,27.5,29.86,WSW,246,15.0,19.0,51,0.00,,,0.00,Wunderground v.1.15,2013-02-12 15:05:00,
2013-02-12 10:10:00,44.6,27.6,29.86,WSW,255,14.0,14.0,51,0.00,,,0.00,Wunderground v.1.15,2013-02-12 15:10:00,
2013-02-12 10:20:00,44.6,26.1,29.86,West,264,14.0,18.0,48,0.00,,,0.00,Wunderground v.1.15,2013-02-12 15:20:00,
2013-02-12 10:30:00,44.8,27.3,29.87,West,262,14.0,19.0,50,0.00,,,0.00,Wunderground v.1.15,2013-02-12 15:30:00,
2013-02-12 10:35:00,45.1,27.6,29.87,WSW,239,14.0,19.0,50,0.00,,,0.00,Wunderground v.1.15,2013-02-12 15:35:00,
2013-02-12 10:40:00,45.3,27.2,29.87,WSW,256,13.0,19.0,49,0.00,,,0.00,Wunderground v.1.15,2013-02-12 15:40:00,
2013-02-12 10:45:00,45.2,27.2,29.87,West,280,14.0,19.0,49,0.00,,,0.00,Wunderground v.1.15,2013-02-12 15:45:00,
2013-02-12 10:50:00,45.1,27.6,29.87,WNW,285,15.0,15.0,50,0.00,,,0.00,Wunderground v.1.15,2013-02-12 15:50:00,
2013-02-12 11:00:00,45.4,27.3,29.88,West,276,14.0,16.0,49,0.00,,,0.00,Wunderground v.1.15,2013-02-12 16:00:00,
2013-02-12 11:05:00,45.5,27.4,29.88,WNW,290,15.0,17.0,49,0.00,,,0.00,Wunderground v.1.15,2013-02-12 16:05:00,
2013-02-12 11:10:00,45.5,26.9,29.88,WNW,286,13.0,13.0,48,0.00,,,0.00,Wunderground v.1.15,2013-02-12 16:10:00,
2013-02-12 11:20:00,45.4,27.3,29.88,NW,309,16.0,20.0,49,0.00,,,0.00,Wunderground v.1.15,2013-02-12 16:20:00,
2013-02-12 11:25:00,45.6,27.5,29.88,West,269,15.0,22.0,49,0.00,,,0.00,Wunderground v.1.15,2013-02-12 16:25:00,
2013-02-12 11:35:00,45.6,27.0,29.88,WSW,254,15.0,17.0,48,0.00,,,0.00,Wunderground v.1.15,2013-02-12 16:35:00,
2013-02-12 11:40:00,45.6,27.0,29.88,NW,308,16.0,22.0,48,0.00,,,0.00,Wunderground v.1.15,2013-02-12 16:40:00,
2013-02-12 11:50:00,46.1,28.5,29.88,West,267,12.0,14.0,50,0.00,,,0.00,Wunderground v.1.15,2013-02-12 16:50:00,
2013-02-12 11:55:00,45.9,27.8,29.89,West,274,12.0,14.0,49,0.00,,,0.00,Wunderground v.1.15,2013-02-12 16:55:00,
2013-02-12 12:05:00,46.5,28.3,29.89,WSW,250,12.0,29.0,49,0.00,,,0.00,Wunderground v.1.15,2013-02-12 17:05:00,
2013-02-12 12:15:00,45.9,27.8,29.88,West,275,16.0,16.0,49,0.00,,,0.00,Wunderground v.1.15,2013-02-12 17:15:00,
2013-02-12 12:20:00,45.7,26.6,29.88,West,280,15.0,19.0,47,0.00,,,0.00,Wunderground v.1.15,2013-02-12 17:20:00,
2013-02-12 12:25:00,44.8,26.8,29.88,NW,315,14.0,19.0,49,0.00,,,0.00,Wunderground v.1.15,2013-02-12 17:25:00,
2013-02-12 12:35:00,45.2,28.6,29.88,NW,319,11.0,15.0,52,0.00,,,0.00,Wunderground v.1.15,2013-02-12 17:35:00,
2013-02-12 12:45:00,45.0,27.9,29.88,NW,312,11.0,12.0,51,0.00,,,0.00,Wunderground v.1.15,2013-02-12 17:45:00,
2013-02-12 12:55:00,45.2,28.1,29.87,NW,309,12.0,14.0,51,0.00,,,0.00,Wunderground v.1.15,2013-02-12 17:55:00,
2013-02-12 13:00:00,45.1,28.0,29.87,WNW,296,13.0,16.0,51,0.00,,,0.00,Wunderground v.1.15,2013-02-12 18:00:00,
2013-02-12 13:10:00,45.3,28.2,29.88,NW,319,12.0,12.0,51,0.00,,,0.00,Wunderground v.1.15,2013-02-12 18:10:00,
2013-02-12 13:15:00,45.5,28.9,29.88,NNW,330,10.0,12.0,52,0.00,,,0.00,Wunderground v.1.15,2013-02-12 18:15:00,
2013-02-12 13:25:00,45.3,28.2,29.87,NNW,329,12.0,12.0,51,0.00,,,0.00,Wunderground v.1.15,2013-02-12 18:25:00,
2013-02-12 13:35:00,45.6,28.5,29.87,NW,311,11.0,14.0,51,0.00,,,0.00,Wunderground v.1.15,2013-02-12 18:35:00,
2013-02-12 13:40:00,45.5,28.4,29.87,NNW,328,12.0,18.0,51,0.00,,,0.00,Wunderground v.1.15,2013-02-12 18:40:00,
2013-02-12 13:50:00,45.6,28.0,29.87,WNW,302,11.0,14.0,50,0.00,,,0.00,Wunderground v.1.15,2013-02-12 18:50:00,
2013-02-12 13:55:00,45.5,28.4,29.87,WNW,294,11.0,14.0,51,0.00,,,0.00,Wunderground v.1.15,2013-02-12 18:55:00,
2013-02-12 14:05:00,45.7,29.1,29.87,NW,315,10.0,14.0,52,0.00,,,0.00,Wunderground v.1.15,2013-02-12 19:05:00,
2013-02-12 14:15:00,45.8,28.7,29.88,NW,314,10.0,14.0,51,0.00,,,0.00,Wunderground v.1.15,2013-02-12 19:15:00,
2013-02-12 14:25:00,45.9,29.2,29.87,WNW,302,10.0,14.0,52,0.00,,,0.00,Wunderground v.1.15,2013-02-12 19:25:00,
2013-02-12 14:30:00,45.9,29.2,29.87,WSW,247,9.0,9.0,52,0.00,,,0.00,Wunderground v.1.15,2013-02-12 19:30:00,
2013-02-12 14:35:00,46.1,29.4,29.87,NW,311,9.0,9.0,52,0.00,,,0.00,Wunderground v.1.15,2013-02-12 19:35:00,
2013-02-12 14:45:00,45.9,29.7,29.86,NW,318,10.0,12.0,53,0.00,,,0.00,Wunderground v.1.15,2013-02-12 19:45:00,
2013-02-12 14:50:00,46.1,28.5,29.86,WNW,285,9.0,10.0,50,0.00,,,0.00,Wunderground v.1.15,2013-02-12 19:50:00,
2013-02-12 15:00:00,46.2,29.5,29.86,NW,315,9.0,9.0,52,0.00,,,0.00,Wunderground v.1.15,2013-02-12 20:00:00,
2013-02-12 15:05:00,46.1,29.0,29.86,WNW,290,9.0,9.0,51,0.00,,,0.00,Wunderground v.1.15,2013-02-12 20:05:00,
2013-02-12 15:10:00,46.2,29.1,29.86,WNW,297,9.0,9.0,51,0.00,,,0.00,Wunderground v.1.15,2013-02-12 20:10:00,
2013-02-12 15:20:00,46.0,28.4,29.85,NNW,333,8.0,13.0,50,0.00,,,0.00,Wunderground v.1.15,2013-02-12 20:20:00,
2013-02-12 15:25:00,45.8,29.2,29.84,NW,316,9.0,13.0,52,0.00,,,0.00,Wunderground v.1.15,2013-02-12 20:25:00,
2013-02-12 15:30:00,46.0,28.4,29.85,NW,307,9.0,12.0,50,0.00,,,0.00,Wunderground v.1.15,2013-02-12 20:30:00,
2013-02-12 15:40:00,45.7,28.1,29.85,WNW,282,10.0,10.0,50,0.00,,,0.00,Wunderground v.1.15,2013-02-12 20:40:00,
2013-02-12 15:45:00,45.7,28.1,29.85,WNW,300,11.0,11.0,50,0.00,,,0.00,Wunderground v.1.15,2013-02-12 20:45:00,
2013-02-12 15:50:00,45.8,28.7,29.84,NW,325,9.0,9.0,51,0.00,,,0.00,Wunderground v.1.15,2013-02-12 20:50:00,
2013-02-12 15:55:00,45.9,29.2,29.83,NW,318,7.0,13.0,52,0.00,,,0.00,Wunderground v.1.15,2013-02-12 20:55:00,
2013-02-12 16:05:00,45.4,28.8,29.81,West,280,8.0,12.0,52,0.00,,,0.00,Wunderground v.1.15,2013-02-12 21:05:00,
2013-02-12 16:15:00,44.8,29.2,29.80,NNE,20,8.0,8.0,54,0.00,,,0.00,Wunderground v.1.15,2013-02-12 21:15:00,
2013-02-12 16:20:00,44.7,28.1,29.81,NW,305,7.0,7.0,52,0.00,,,0.00,Wunderground v.1.15,2013-02-12 21:20:00,
2013-02-12 16:30:00,44.4,27.4,29.82,WNW,288,8.0,8.0,51,0.00,,,0.00,Wunderground v.1.15,2013-02-12 21:30:00,
2013-02-12 16:35:00,44.1,28.0,29.83,NW,314,8.0,8.0,53,0.00,,,0.00,Wunderground v.1.15,2013-02-12 21:35:00,
2013-02-12 16:40:00,44.0,28.4,29.85,NW,307,7.0,10.0,54,0.00,,,0.00,Wunderground v.1.15,2013-02-12 21:40:00,
2013-02-12 16:45:00,43.9,27.9,29.85,NW,308,7.0,10.0,53,0.00,,,0.00,Wunderground v.1.15,2013-02-12 21:45:00,
2013-02-12 16:55:00,43.6,28.5,29.86,WNW,296,6.0,7.0,55,0.00,,,0.00,Wunderground v.1.15,2013-02-12 21:55:00,
2013-02-12 17:00:00,43.4,27.8,29.87,WNW,283,5.0,6.0,54,0.00,,,0.00,Wunderground v.1.15,2013-02-12 22:00:00,
2013-02-12 17:05:00,43.2,28.1,29.88,NW,314,5.0,6.0,55,0.00,,,0.00,Wunderground v.1.15,2013-02-12 22:05:00,
2013-02-12 17:10:00,43.0,27.5,29.90,WSW,254,5.0,5.0,54,0.00,,,0.00,Wunderground v.1.15,2013-02-12 22:10:00,
2013-02-12 17:20:00,42.6,27.5,29.89,WNW,300,6.0,6.0,55,0.00,,,0.00,Wunderground v.1.15,2013-02-12 22:20:00,
2013-02-12 17:25:00,42.4,28.2,29.91,WNW,300,5.0,6.0,57,0.00,,,0.00,Wunderground v.1.15,2013-02-12 22:25:00,
2013-02-12 17:30:00,42.3,26.8,29.91,WNW,300,6.0,6.0,54,0.00,,,0.00,Wunderground v.1.15,2013-02-12 22:30:00,
2013-02-12 17:35:00,42.2,27.6,29.93,NW,304,7.0,7.0,56,0.00,,,0.00,Wunderground v.1.15,2013-02-12 22:35:00,
2013-02-12 17:40:00,42.0,27.9,29.93,WNW,291,6.0,6.0,57,0.00,,,0.00,Wunderground v.1.15,2013-02-12 22:40:00,
2013-02-12 17:45:00,41.9,27.8,29.94,WNW,302,6.0,6.0,57,0.00,,,0.00,Wunderground v.1.15,2013-02-12 22:45:00,
2013-02-12 17:55:00,41.5,27.0,29.93,NW,307,6.0,7.0,56,0.00,,,0.00,Wunderground v.1.15,2013-02-12 22:55:00,
2013-02-12 18:05:00,41.2,27.1,29.94,NNW,328,5.0,6.0,57,0.00,,,0.00,Wunderground v.1.15,2013-02-12 23:05:00,
2013-02-12 18:10:00,41.1,27.0,29.94,NW,325,5.0,6.0,57,0.00,,,0.00,Wunderground v.1.15,2013-02-12 23:10:00,
2013-02-12 18:15:00,40.9,26.8,29.94,West,281,6.0,6.0,57,0.00,,,0.00,Wunderground v.1.15,2013-02-12 23:15:00,
2013-02-12 18:20:00,40.7,27.1,29.94,NW,308,6.0,6.0,58,0.00,,,0.00,Wunderground v.1.15,2013-02-12 23:20:00,
2013-02-12 18:25:00,40.6,27.0,29.94,NW,309,5.0,6.0,58,0.00,,,0.00,Wunderground v.1.15,2013-02-12 23:25:00,
2013-02-12 18:35:00,40.3,27.5,29.94,NW,312,4.0,5.0,60,0.00,,,0.00,Wunderground v.1.15,2013-02-12 23:35:00,
2013-02-12 18:45:00,40.1,27.3,29.95,NW,319,4.0,5.0,60,0.00,,,0.00,Wunderground v.1.15,2013-02-12 23:45:00,
2013-02-12 18:50:00,40.0,26.8,29.94,NNW,330,4.0,5.0,59,0.00,,,0.00,Wunderground v.1.15,2013-02-12 23:50:00,
2013-02-12 18:55:00,39.9,27.1,29.95,NW,321,5.0,11.0,60,0.00,,,0.00,Wunderground v.1.15,2013-02-12 23:55:00,
2013-02-12 19:00:00,39.9,27.1,29.95,NW,307,5.0,6.0,60,0.00,,,0.00,Wunderground v.1.15,2013-02-13 00:00:00,
2013-02-12 19:05:00,39.8,27.0,29.95,NW,325,5.0,7.0,60,0.00,,,0.00,Wunderground v.1.15,2013-02-13 00:05:00,
2013-02-12 19:15:00,39.5,26.8,29.95,NW,325,3.0,4.0,60,0.00,,,0.00,Wunderground v.1.15,2013-02-13 00:15:00,
2013-02-12 19:25:00,39.2,26.9,29.95,NW,319,4.0,5.0,61,0.00,,,0.00,Wunderground v.1.15,2013-02-13 00:25:00,
2013-02-12 19:30:00,39.1,27.2,29.95,NW,315,5.0,6.0,62,0.00,,,0.00,Wunderground v.1.15,2013-02-13 00:30:00,
2013-02-12 19:35:00,39.0,26.7,29.94,NW,314,5.0,6.0,61,0.00,,,0.00,Wunderground v.1.15,2013-02-13 00:35:00,
2013-02-12 19:45:00,38.7,26.8,29.95,NNW,330,4.0,5.0,62,0.00,,,0.00,Wunderground v.1.15,2013-02-13 00:45:00,
2013-02-12 19:55:00,38.6,26.7,29.94,NW,319,3.0,4.0,62,0.00,,,0.00,Wunderground v.1.15,2013-02-13 00:55:00,
2013-02-12 20:00:00,38.5,27.0,29.94,NW,325,4.0,5.0,63,0.00,,,0.00,Wunderground v.1.15,2013-02-13 01:00:00,
2013-02-12 20:05:00,38.4,26.5,29.94,North,356,4.0,5.0,62,0.00,,,0.00,Wunderground v.1.15,2013-02-13 01:05:00,
2013-02-12 20:10:00,38.3,26.8,29.93,NNW,328,4.0,4.0,63,0.00,,,0.00,Wunderground v.1.15,2013-02-13 01:10:00,
2013-02-12 20:15:00,38.2,26.7,29.93,NNW,328,4.0,4.0,63,0.00,,,0.00,Wunderground v.1.15,2013-02-13 01:15:00,
2013-02-12 20:25:00,37.7,26.6,29.93,WNW,300,2.0,3.0,64,0.00,,,0.00,Wunderground v.1.15,2013-02-13 01:25:00,
2013-02-12 20:30:00,37.5,26.8,29.93,NW,305,1.0,1.0,65,0.00,,,0.00,Wunderground v.1.15,2013-02-13 01:30:00,
2013-02-12 20:35:00,37.5,26.8,29.93,NW,309,1.0,2.0,65,0.00,,,0.00,Wunderground v.1.15,2013-02-13 01:35:00,
2013-02-12 20:45:00,37.2,26.9,29.92,NNW,338,1.0,1.0,66,0.00,,,0.00,Wunderground v.1.15,2013-02-13 01:45:00,
2013-02-12 20:50:00,37.1,27.5,29.92,NNW,328,1.0,2.0,68,0.00,,,0.00,Wunderground v.1.15,2013-02-13 01:50:00,
2013-02-12 21:00:00,37.0,27.8,29.91,NNW,333,2.0,2.0,69,0.00,,,0.00,Wunderground v.1.15,2013-02-13 02:00:00,
2013-02-12 21:05:00,36.9,27.3,29.91,North,8,2.0,2.0,68,0.00,,,0.00,Wunderground v.1.15,2013-02-13 02:05:00,
2013-02-12 21:15:00,36.3,26.0,29.91,WNW,294,0.0,1.0,66,0.00,,,0.00,Wunderground v.1.15,2013-02-13 02:15:00,
2013-02-12 21:20:00,36.0,25.7,29.91,West,274,0.0,0.0,66,0.00,,,0.00,Wunderground v.1.15,2013-02-13 02:20:00,
2013-02-12 21:25:00,35.5,25.6,29.91,SW,226,0.0,0.0,67,0.00,,,0.00,Wunderground v.1.15,2013-02-13 02:25:00,
2013-02-12 21:30:00,35.1,25.6,29.92,SW,226,0.0,0.0,68,0.00,,,0.00,Wunderground v.1.15,2013-02-13 02:30:00,
2013-02-12 21:35:00,35.1,26.3,29.90,WSW,246,0.0,0.0,70,0.00,,,0.00,Wunderground v.1.15,2013-02-13 02:35:00,
2013-02-12 21:45:00,34.6,26.2,29.91,SW,223,0.0,0.0,71,0.00,,,0.00,Wunderground v.1.15,2013-02-13 02:45:00,
2013-02-12 21:55:00,34.7,26.6,29.91,WSW,258,1.0,1.0,72,0.00,,,0.00,Wunderground v.1.15,2013-02-13 02:55:00,
2013-02-12 22:00:00,34.7,26.9,29.91,West,269,0.0,0.0,73,0.00,,,0.00,Wunderground v.1.15,2013-02-13 03:00:00,
2013-02-12 22:05:00,34.5,26.7,29.92,WSW,238,0.0,0.0,73,0.00,,,0.00,Wunderground v.1.15,2013-02-13 03:05:00,
2013-02-12 22:15:00,34.1,26.3,29.92,SW,218,0.0,0.0,73,0.00,,,0.00,Wunderground v.1.15,2013-02-13 03:15:00,
2013-02-12 22:20:00,34.1,26.3,29.92,WSW,249,0.0,2.0,73,0.00,,,0.00,Wunderground v.1.15,2013-02-13 03:20:00,
2013-02-12 22:25:00,34.2,26.4,29.92,WSW,257,0.0,2.0,73,0.00,,,0.00,Wunderground v.1.15,2013-02-13 03:25:00,
2013-02-12 22:35:00,34.1,26.3,29.92,SSW,212,0.0,0.0,73,0.00,,,0.00,Wunderground v.1.15,2013-02-13 03:35:00,
2013-02-12 22:40:00,33.9,26.2,29.92,WNW,284,0.0,0.0,73,0.00,,,0.00,Wunderground v.1.15,2013-02-13 03:40:00,
2013-02-12 22:50:00,33.7,26.3,29.92,WNW,291,0.0,0.0,74,0.00,,,0.00,Wunderground v.1.15,2013-02-13 03:50:00,
2013-02-12 22:55:00,33.5,26.1,29.92,WNW,291,0.0,0.0,74,0.00,,,0.00,Wunderground v.1.15,2013-02-13 03:55:00,
2013-02-12 23:05:00,33.1,26.0,29.93,WNW,285,0.0,0.0,75,0.00,,,0.00,Wunderground v.1.15,2013-02-13 04:05:00,
2013-02-12 23:15:00,32.8,26.1,29.93,WNW,284,0.0,1.0,76,0.00,,,0.00,Wunderground v.1.15,2013-02-13 04:15:00,
2013-02-12 23:20:00,32.8,26.1,29.93,WNW,285,0.0,0.0,76,0.00,,,0.00,Wunderground v.1.15,2013-02-13 04:20:00,
2013-02-12 23:25:00,32.8,26.1,29.93,South,180,0.0,0.0,76,0.00,,,0.00,Wunderground v.1.15,2013-02-13 04:25:00,
2013-02-12 23:30:00,32.8,26.1,29.93,WNW,293,0.0,1.0,76,0.00,,,0.00,Wunderground v.1.15,2013-02-13 04:30:00,
2013-02-12 23:35:00,33.0,26.3,29.93,West,281,0.0,1.0,76,0.00,,,0.00,Wunderground v.1.15,2013-02-13 04:35:00,
2013-02-12 23:45:00,33.1,26.4,29.93,WSW,257,0.0,0.0,76,0.00,,,0.00,Wunderground v.1.15,2013-02-13 04:45:00,
2013-02-12 23:50:00,33.0,26.3,29.93,West,263,0.0,1.0,76,0.00,,,0.00,Wunderground v.1.15,2013-02-13 04:50:00,
2013-02-12 23:55:00,33.2,26.5,29.93,WNW,294,0.0,1.0,76,0.00,,,0.00,Wunderground v.1.15,2013-02-13 04:55:00,